Time;durP1;ratioP1;P1;durP2;ratioP2;P2;SDS_P1;SDS_P2;PMS_P1;PMS_P2;Temp;Humidity;BMP_temperature;BMP_pressure;BME280_temperature;BME280_humidity;BME280_pressure;Samples;Min_cycle;Max_cycle;Signal;HPM_P1;HPM_P2
2021/05/16 00:02:23;;;;;;;26.05;14.95;;;8.90;99.90;;;;;;6185178;23;20020;-87
2021/05/16 00:04:49;;;;;;;26.55;15.70;;;8.90;99.90;;;;;;6185052;23;20044;-87
2021/05/16 00:07:15;;;;;;;25.40;14.60;;;9.00;99.90;;;;;;6185400;23;20028;-87
2021/05/16 00:09:42;;;;;;;28.10;15.18;;;9.00;99.90;;;;;;6212596;23;20020;-88
2021/05/16 00:12:11;;;;;;;25.10;15.77;;;8.90;99.90;;;;;;6185554;23;20087;-87
2021/05/16 00:14:39;;;;;;;25.33;15.13;;;8.90;99.90;;;;;;6210425;23;20012;-88
2021/05/16 00:17:06;;;;;;;21.70;14.57;;;9.00;99.90;;;;;;6209942;23;20084;-88
2021/05/16 00:19:32;;;;;;;24.02;14.82;;;9.00;99.90;;;;;;6210834;23;20024;-88
2021/05/16 00:21:59;;;;;;;25.38;14.80;;;9.00;99.90;;;;;;6210969;23;20027;-88
2021/05/16 00:24:26;;;;;;;25.63;14.70;;;9.00;99.90;;;;;;6185498;23;20017;-88
2021/05/16 00:26:52;;;;;;;23.70;15.18;;;9.00;99.90;;;;;;6185186;23;20013;-88
2021/05/16 00:29:18;;;;;;;25.50;14.73;;;9.00;99.90;;;;;;6185885;23;20069;-88
2021/05/16 00:31:44;;;;;;;20.33;14.15;;;9.00;99.90;;;;;;6209525;23;20028;-88
2021/05/16 00:34:09;;;;;;;26.27;15.75;;;9.00;99.90;;;;;;6184479;23;20016;-88
2021/05/16 00:36:35;;;;;;;24.10;14.40;;;9.00;99.90;;;;;;6210657;23;20017;-88
2021/05/16 00:39:03;;;;;;;26.85;13.88;;;9.00;99.90;;;;;;6184450;23;20024;-88
2021/05/16 00:41:29;;;;;;;25.48;14.95;;;9.00;99.90;;;;;;6212163;23;20095;-87
2021/05/16 00:43:54;;;;;;;25.40;15.40;;;9.10;99.90;;;;;;6209279;23;20044;-88
2021/05/16 00:46:20;;;;;;;21.70;13.70;;;9.10;99.90;;;;;;6160623;23;20031;-88
2021/05/16 00:48:46;;;;;;;22.05;14.30;;;9.10;99.90;;;;;;6209925;23;20024;-87
2021/05/16 00:51:13;;;;;;;18.58;12.05;;;9.20;99.90;;;;;;6184333;23;20012;-88
2021/05/16 00:53:39;;;;;;;18.30;12.82;;;9.20;99.90;;;;;;6211567;23;20036;-88
2021/05/16 00:56:05;;;;;;;19.40;13.63;;;9.20;99.90;;;;;;6209612;23;20028;-89
2021/05/16 00:58:32;;;;;;;20.63;13.82;;;9.30;99.90;;;;;;6210237;23;20048;-87
2021/05/16 01:00:58;;;;;;;19.60;13.55;;;9.30;99.90;;;;;;6159918;23;20025;-89
2021/05/16 01:03:27;;;;;;;19.65;12.60;;;9.30;99.90;;;;;;6211355;23;20339;-88
2021/05/16 01:05:53;;;;;;;22.70;13.63;;;9.40;99.90;;;;;;6184519;23;20020;-89
2021/05/16 01:08:19;;;;;;;26.15;14.77;;;9.40;99.90;;;;;;6211607;23;20047;-89
2021/05/16 01:10:46;;;;;;;24.73;14.73;;;9.40;99.90;;;;;;6210133;23;20055;-89
2021/05/16 01:13:13;;;;;;;20.75;14.73;;;9.40;99.90;;;;;;6208991;23;20108;-89
2021/05/16 01:15:42;;;;;;;21.27;14.30;;;9.40;99.90;;;;;;6211727;23;20020;-88
2021/05/16 01:18:08;;;;;;;20.77;13.55;;;9.40;99.90;;;;;;6209240;23;20020;-88
2021/05/16 01:20:38;;;;;;;19.08;14.63;;;9.50;99.90;;;;;;6210670;23;20051;-88
2021/05/16 01:23:17;;;;;;;25.30;15.60;;;9.50;99.90;;;;;;6210577;23;20024;-88
2021/05/16 01:25:45;;;;;;;26.77;16.23;;;9.50;99.90;;;;;;6212035;23;20070;-89
2021/05/16 01:28:13;;;;;;;26.92;16.15;;;9.50;99.90;;;;;;6209540;23;20067;-89
2021/05/16 01:30:40;;;;;;;25.48;16.00;;;9.50;99.90;;;;;;6186004;23;20451;-89
2021/05/16 01:33:06;;;;;;;27.45;15.93;;;9.60;99.90;;;;;;6159738;23;20066;-89
2021/05/16 01:35:34;;;;;;;26.23;16.88;;;9.50;99.90;;;;;;6186948;23;20020;-89
2021/05/16 01:38:00;;;;;;;26.05;16.00;;;9.60;99.90;;;;;;6209492;23;20020;-89
2021/05/16 01:40:27;;;;;;;19.55;13.98;;;9.60;99.90;;;;;;6160442;23;20040;-90
2021/05/16 01:42:55;;;;;;;23.45;14.80;;;9.60;99.90;;;;;;6185032;23;20024;-90
2021/05/16 01:45:24;;;;;;;24.15;15.35;;;9.60;99.90;;;;;;6211577;23;20019;-90
2021/05/16 01:47:54;;;;;;;22.15;13.30;;;9.60;99.90;;;;;;6210073;23;20052;-89
2021/05/16 01:50:23;;;;;;;22.42;14.73;;;9.60;99.90;;;;;;6212821;23;20374;-90
2021/05/16 01:52:51;;;;;;;23.38;16.02;;;9.60;99.90;;;;;;6210096;23;20040;-90
2021/05/16 01:55:18;;;;;;;17.35;12.32;;;9.60;99.90;;;;;;6184714;23;20195;-89
2021/05/16 01:57:46;;;;;;;23.60;15.15;;;9.60;99.90;;;;;;6185535;23;20029;-90
2021/05/16 02:00:22;;;;;;;23.40;15.07;;;9.60;99.90;;;;;;6209273;23;20024;-89
2021/05/16 02:02:48;;;;;;;21.20;14.65;;;9.60;99.90;;;;;;6219985;23;20082;-89
2021/05/16 02:05:15;;;;;;;27.17;15.63;;;9.60;99.90;;;;;;6210663;23;20241;-90
2021/05/16 02:07:42;;;;;;;25.05;16.58;;;9.60;99.90;;;;;;6185258;23;20017;-90
2021/05/16 02:10:09;;;;;;;23.15;15.90;;;9.60;99.90;;;;;;6183977;23;20021;-89
2021/05/16 02:12:34;;;;;;;25.55;16.63;;;9.60;99.90;;;;;;6160166;23;20108;-89
2021/05/16 02:15:06;;;;;;;24.48;16.30;;;9.60;99.90;;;;;;6184883;23;20024;-90
2021/05/16 02:17:33;;;;;;;27.63;17.45;;;9.60;99.90;;;;;;6209666;23;20094;-89
2021/05/16 02:19:59;;;;;;;19.40;14.95;;;9.60;99.90;;;;;;6184388;23;20067;-89
2021/05/16 02:22:24;;;;;;;24.98;16.33;;;9.60;99.90;;;;;;6184609;23;20028;-87
2021/05/16 02:24:50;;;;;;;26.45;17.60;;;9.60;99.90;;;;;;6184620;23;20021;-87
2021/05/16 02:27:17;;;;;;;27.50;18.23;;;9.60;99.90;;;;;;6209782;23;20450;-87
2021/05/16 02:29:43;;;;;;;25.40;17.13;;;9.50;99.90;;;;;;6209165;23;20024;-87
2021/05/16 02:32:09;;;;;;;25.95;17.48;;;9.50;99.90;;;;;;6183772;23;20451;-86
2021/05/16 02:34:35;;;;;;;22.13;15.85;;;9.50;99.90;;;;;;6211171;23;20534;-87
2021/05/16 02:37:02;;;;;;;26.08;17.00;;;9.50;99.90;;;;;;6208804;23;20020;-88
2021/05/16 02:39:28;;;;;;;23.75;16.58;;;9.50;99.90;;;;;;6209465;23;20076;-87
2021/05/16 02:41:54;;;;;;;27.70;16.92;;;9.40;99.90;;;;;;6210003;23;20443;-87
2021/05/16 02:44:19;;;;;;;27.10;17.25;;;9.40;99.90;;;;;;6183661;23;20079;-86
2021/05/16 02:46:46;;;;;;;28.55;17.67;;;9.40;99.90;;;;;;6210759;23;20021;-87
2021/05/16 02:49:12;;;;;;;30.25;17.30;;;9.40;99.90;;;;;;6183261;23;20025;-88
2021/05/16 02:51:39;;;;;;;26.50;16.23;;;9.40;99.90;;;;;;6194385;23;20083;-87
2021/05/16 02:54:06;;;;;;;18.80;14.55;;;9.40;99.90;;;;;;6158951;23;20044;-87
2021/05/16 02:56:32;;;;;;;17.55;13.15;;;9.40;99.90;;;;;;6209530;23;20028;-87
2021/05/16 02:58:59;;;;;;;19.17;14.27;;;9.40;99.90;;;;;;6209289;23;20020;-88
2021/05/16 03:01:25;;;;;;;17.30;13.88;;;9.40;99.90;;;;;;6159162;23;20081;-87
2021/05/16 03:03:51;;;;;;;12.80;11.25;;;9.40;99.90;;;;;;6209302;23;20021;-88
2021/05/16 03:06:16;;;;;;;11.02;9.73;;;9.40;99.90;;;;;;6209940;23;20021;-88
2021/05/16 03:08:42;;;;;;;17.05;12.18;;;9.40;99.90;;;;;;6209433;23;20016;-87
2021/05/16 03:11:08;;;;;;;11.70;10.40;;;9.50;99.90;;;;;;6183395;23;20099;-87
2021/05/16 03:13:34;;;;;;;12.30;10.95;;;9.50;99.90;;;;;;6210852;23;20024;-87
2021/05/16 03:16:00;;;;;;;19.15;13.27;;;9.50;99.90;;;;;;6184261;23;20024;-88
2021/05/16 03:18:26;;;;;;;15.85;11.70;;;9.40;99.90;;;;;;6183582;23;20031;-87
2021/05/16 03:20:52;;;;;;;19.45;11.57;;;9.40;99.90;;;;;;6208691;23;20016;-87
2021/05/16 03:23:18;;;;;;;15.10;11.52;;;9.40;99.90;;;;;;6208726;23;20374;-88
2021/05/16 03:25:45;;;;;;;14.73;11.82;;;9.50;99.90;;;;;;6184349;23;20037;-89
2021/05/16 03:28:11;;;;;;;16.35;13.35;;;9.50;99.90;;;;;;6184262;23;20027;-88
2021/05/16 03:30:36;;;;;;;21.10;15.80;;;9.50;99.90;;;;;;6210700;23;20342;-88
2021/05/16 03:33:02;;;;;;;13.32;11.93;;;9.50;99.90;;;;;;6186076;23;20093;-89
2021/05/16 03:35:28;;;;;;;18.13;15.45;;;9.50;99.90;;;;;;6210167;23;20020;-88
2021/05/16 03:37:54;;;;;;;16.02;13.30;;;9.50;99.90;;;;;;6211066;23;20350;-87
2021/05/16 03:40:20;;;;;;;20.27;14.52;;;9.50;99.90;;;;;;6210213;23;20035;-87
2021/05/16 03:42:46;;;;;;;18.52;14.05;;;9.50;99.90;;;;;;6211196;23;20130;-88
2021/05/16 03:45:13;;;;;;;20.70;13.27;;;9.50;99.90;;;;;;6184941;23;20040;-88
2021/05/16 03:47:39;;;;;;;19.50;15.35;;;9.50;99.90;;;;;;6211373;23;20076;-88
2021/05/16 03:50:10;;;;;;;17.95;13.95;;;9.50;99.90;;;;;;6212261;23;20021;-90
2021/05/16 03:52:36;;;;;;;23.08;14.45;;;9.50;99.90;;;;;;6211310;23;20028;-88
2021/05/16 03:55:04;;;;;;;18.33;14.57;;;9.50;99.90;;;;;;6211044;23;20028;-88
2021/05/16 03:57:29;;;;;;;17.75;13.45;;;9.50;99.90;;;;;;6185424;23;20028;-88
2021/05/16 03:59:55;;;;;;;23.00;16.80;;;9.60;99.90;;;;;;6210666;23;20016;-88
2021/05/16 04:02:21;;;;;;;23.38;17.98;;;9.60;99.90;;;;;;6160453;23;20473;-89
2021/05/16 04:04:47;;;;;;;24.00;16.42;;;9.60;99.90;;;;;;6186360;23;20013;-87
2021/05/16 04:07:13;;;;;;;24.90;16.95;;;9.60;99.90;;;;;;6184840;23;20020;-88
2021/05/16 04:09:38;;;;;;;31.48;19.83;;;9.60;99.90;;;;;;6211012;23;20328;-87
2021/05/16 04:12:05;;;;;;;22.20;17.55;;;9.60;99.90;;;;;;6210488;23;20025;-87
2021/05/16 04:14:31;;;;;;;28.20;20.00;;;9.60;99.90;;;;;;6209579;23;20406;-87
2021/05/16 04:16:57;;;;;;;22.75;17.42;;;9.70;99.90;;;;;;6186110;23;20071;-89
2021/05/16 04:19:23;;;;;;;27.90;19.15;;;9.70;99.90;;;;;;6211395;23;20378;-88
2021/05/16 04:21:49;;;;;;;27.95;20.23;;;9.70;99.90;;;;;;6185928;23;20079;-88
2021/05/16 04:24:15;;;;;;;24.80;18.52;;;9.80;99.90;;;;;;6185162;23;20036;-87
2021/05/16 04:26:41;;;;;;;26.73;18.58;;;9.80;99.90;;;;;;6185792;23;20028;-88
2021/05/16 04:29:07;;;;;;;28.17;20.10;;;9.80;99.90;;;;;;6210971;23;20016;-87
2021/05/16 04:31:33;;;;;;;19.63;16.38;;;9.80;99.90;;;;;;6184994;23;20044;-88
2021/05/16 04:33:59;;;;;;;25.52;19.83;;;9.80;99.90;;;;;;6211916;23;20021;-88
2021/05/16 04:36:26;;;;;;;30.33;20.92;;;9.80;99.90;;;;;;6184930;23;20032;-87
2021/05/16 04:38:52;;;;;;;24.60;19.27;;;9.90;99.90;;;;;;6210680;23;20020;-87
2021/05/16 04:41:19;;;;;;;26.73;19.85;;;9.90;99.90;;;;;;6209496;23;20403;-87
2021/05/16 04:43:45;;;;;;;28.70;18.98;;;9.90;99.90;;;;;;6210463;23;20017;-87
2021/05/16 04:46:11;;;;;;;24.75;18.88;;;10.00;99.90;;;;;;6210006;23;20021;-89
2021/05/16 04:48:37;;;;;;;23.10;18.75;;;10.00;99.90;;;;;;6185373;23;20040;-87
2021/05/16 04:51:04;;;;;;;23.73;16.98;;;10.00;99.90;;;;;;6210034;23;20024;-87
2021/05/16 04:53:33;;;;;;;23.27;18.48;;;10.00;99.90;;;;;;6209267;23;20120;-88
2021/05/16 04:56:00;;;;;;;26.92;19.48;;;10.10;99.90;;;;;;6209979;23;20016;-87
2021/05/16 04:58:26;;;;;;;25.63;18.27;;;10.10;99.90;;;;;;6211125;23;20040;-87
2021/05/16 05:00:52;;;;;;;22.17;18.55;;;10.20;99.90;;;;;;6211676;23;20044;-88
2021/05/16 05:03:21;;;;;;;20.35;18.13;;;10.20;99.90;;;;;;6184573;23;20438;-87
2021/05/16 05:05:47;;;;;;;23.35;18.55;;;10.20;99.90;;;;;;6185890;23;20062;-86
2021/05/16 05:08:12;;;;;;;21.67;18.85;;;10.20;99.90;;;;;;6211718;23;20481;-92
2021/05/16 05:10:38;;;;;;;23.50;18.13;;;10.20;99.90;;;;;;6185195;23;20017;-88
2021/05/16 05:13:04;;;;;;;22.00;18.02;;;10.30;99.90;;;;;;6160693;23;20028;-87
2021/05/16 05:15:30;;;;;;;27.73;18.63;;;10.30;99.90;;;;;;6209247;23;20043;-87
2021/05/16 05:17:56;;;;;;;18.60;16.30;;;10.40;99.90;;;;;;6185308;23;20047;-89
2021/05/16 05:20:23;;;;;;;21.58;17.45;;;10.40;99.90;;;;;;6209714;23;20020;-88
2021/05/16 05:22:48;;;;;;;26.00;18.52;;;10.40;99.90;;;;;;6209659;23;20398;-87
2021/05/16 05:25:14;;;;;;;21.48;17.08;;;10.50;99.90;;;;;;6209594;23;20024;-88
2021/05/16 05:27:43;;;;;;;20.50;17.35;;;10.50;99.90;;;;;;6184787;23;20024;-89
2021/05/16 05:30:10;;;;;;;18.58;15.57;;;10.60;99.90;;;;;;6211605;23;20109;-88
2021/05/16 05:32:36;;;;;;;24.35;17.58;;;10.70;99.90;;;;;;6184168;23;20522;-89
2021/05/16 05:35:03;;;;;;;20.63;15.57;;;10.70;99.90;;;;;;6209938;23;20013;-87
2021/05/16 05:37:29;;;;;;;21.65;17.38;;;10.70;99.90;;;;;;6209347;23;20111;-87
2021/05/16 05:39:54;;;;;;;19.10;16.88;;;10.80;99.90;;;;;;6160158;23;20047;-87
2021/05/16 05:42:23;;;;;;;19.25;16.10;;;10.80;99.90;;;;;;6159151;23;20027;-87
2021/05/16 05:44:49;;;;;;;22.38;16.48;;;10.90;99.90;;;;;;6210580;23;20027;-87
2021/05/16 05:47:15;;;;;;;20.90;17.70;;;11.00;99.90;;;;;;6209480;23;20021;-88
2021/05/16 05:49:41;;;;;;;23.73;17.48;;;11.10;99.90;;;;;;6209118;23;20091;-87
2021/05/16 05:52:07;;;;;;;21.45;16.90;;;11.10;99.90;;;;;;6209052;23;20041;-87
2021/05/16 05:54:34;;;;;;;24.77;19.08;;;11.20;99.90;;;;;;6183451;23;20021;-87
2021/05/16 05:57:01;;;;;;;19.95;16.40;;;11.20;99.90;;;;;;6209339;23;20031;-88
2021/05/16 05:59:27;;;;;;;20.63;16.50;;;11.30;99.90;;;;;;6208670;23;20390;-84
2021/05/16 06:01:52;;;;;;;21.92;16.98;;;11.30;99.90;;;;;;6209165;23;20020;-86
2021/05/16 06:04:18;;;;;;;21.10;17.05;;;11.40;99.90;;;;;;6208897;23;20375;-86
2021/05/16 06:06:44;;;;;;;19.27;16.13;;;11.50;99.90;;;;;;6159085;23;20456;-85
2021/05/16 06:09:10;;;;;;;23.40;17.08;;;11.50;99.90;;;;;;6211360;23;20028;-85
2021/05/16 06:11:35;;;;;;;25.52;17.42;;;11.60;99.90;;;;;;6209097;23;20070;-86
2021/05/16 06:14:01;;;;;;;22.25;16.05;;;11.60;99.90;;;;;;6211469;23;20016;-86
2021/05/16 06:16:29;;;;;;;22.23;16.45;;;11.70;99.90;;;;;;6209089;23;20016;-87
2021/05/16 06:18:57;;;;;;;29.90;16.65;;;11.80;99.90;;;;;;6185712;23;20044;-87
2021/05/16 06:21:23;;;;;;;23.42;16.45;;;11.80;99.90;;;;;;6159571;23;20542;-88
2021/05/16 06:24:09;;;;;;;27.88;17.30;;;11.80;99.90;;;;;;6209671;23;20369;-87
2021/05/16 06:26:37;;;;;;;29.00;15.10;;;11.80;99.90;;;;;;6218847;23;20028;-86
2021/05/16 06:29:04;;;;;;;24.13;16.63;;;11.90;99.90;;;;;;6209679;23;20024;-87
2021/05/16 06:31:30;;;;;;;24.27;16.95;;;12.10;99.90;;;;;;6210059;23;20013;-87
2021/05/16 06:33:56;;;;;;;18.67;15.10;;;12.00;99.90;;;;;;6210029;23;20020;-87
2021/05/16 06:36:22;;;;;;;29.45;15.25;;;12.10;99.90;;;;;;6208767;23;20517;-89
2021/05/16 06:38:48;;;;;;;29.67;19.15;;;12.20;99.90;;;;;;6211312;23;20020;-87
2021/05/16 06:41:18;;;;;;;34.78;19.92;;;12.20;99.90;;;;;;6209499;23;20470;-88
2021/05/16 06:43:45;;;;;;;38.00;21.52;;;12.20;99.90;;;;;;6208850;23;20098;-88
2021/05/16 06:46:12;;;;;;;39.63;20.35;;;12.10;99.90;;;;;;6185013;23;20016;-88
2021/05/16 06:48:38;;;;;;;45.92;21.73;;;12.10;99.90;;;;;;6208402;23;20028;-87
2021/05/16 06:51:07;;;;;;;38.88;20.65;;;12.00;99.90;;;;;;6210854;23;20092;-87
2021/05/16 06:53:33;;;;;;;37.15;21.13;;;12.10;99.90;;;;;;6158696;23;20020;-88
2021/05/16 06:56:00;;;;;;;37.22;21.40;;;12.20;99.90;;;;;;6209696;23;20107;-87
2021/05/16 06:58:27;;;;;;;38.22;20.02;;;12.30;99.90;;;;;;6208339;23;20078;-87
2021/05/16 07:00:52;;;;;;;36.22;19.95;;;12.40;99.90;;;;;;6209343;23;20090;-87
2021/05/16 07:03:18;;;;;;;36.97;20.02;;;12.60;99.90;;;;;;6186114;23;20395;-87
2021/05/16 07:05:44;;;;;;;37.95;19.83;;;12.80;99.90;;;;;;6211818;23;20020;-88
2021/05/16 07:08:10;;;;;;;35.20;19.63;;;12.90;99.90;;;;;;6186760;23;20312;-89
2021/05/16 07:10:36;;;;;;;34.85;18.63;;;12.90;99.90;;;;;;6160144;23;20013;-88
2021/05/16 07:13:02;;;;;;;35.03;18.50;;;13.00;99.90;;;;;;6186389;23;20099;-87
2021/05/16 07:15:28;;;;;;;30.08;18.02;;;13.10;99.90;;;;;;6210697;23;20016;-89
2021/05/16 07:17:54;;;;;;;30.48;18.95;;;13.20;99.90;;;;;;6211816;23;20067;-88
2021/05/16 07:20:20;;;;;;;35.15;19.35;;;13.20;99.90;;;;;;6211558;23;20038;-88
2021/05/16 07:22:46;;;;;;;37.40;20.55;;;13.20;99.90;;;;;;6185798;23;20119;-91
2021/05/16 07:25:14;;;;;;;36.28;19.65;;;13.10;99.90;;;;;;6161205;23;20166;-90
2021/05/16 07:27:40;;;;;;;40.45;21.13;;;13.10;99.90;;;;;;6211698;23;20040;-90
2021/05/16 07:30:07;;;;;;;37.67;18.75;;;13.00;99.90;;;;;;6185468;23;20339;-89
2021/05/16 07:32:33;;;;;;;36.47;18.80;;;13.10;99.90;;;;;;6209778;23;20017;-88
2021/05/16 07:34:59;;;;;;;45.38;22.67;;;13.00;99.90;;;;;;6186196;23;20090;-90
2021/05/16 07:37:25;;;;;;;40.60;20.63;;;13.00;99.90;;;;;;6210106;23;20515;-90
2021/05/16 07:39:51;;;;;;;44.42;19.83;;;13.10;99.90;;;;;;6185578;23;20016;-89
2021/05/16 07:42:17;;;;;;;35.28;18.83;;;13.30;99.90;;;;;;6185987;23;20107;-90
2021/05/16 07:44:45;;;;;;;37.22;19.52;;;13.50;99.90;;;;;;6210273;23;20012;-89
2021/05/16 07:47:11;;;;;;;39.05;18.58;;;13.70;99.90;;;;;;6212323;23;20024;-87
2021/05/16 07:49:36;;;;;;;33.38;19.33;;;13.80;99.90;;;;;;6211830;23;20025;-90
2021/05/16 07:52:03;;;;;;;34.60;18.50;;;14.00;99.90;;;;;;6185569;23;20026;-89
2021/05/16 07:54:29;;;;;;;28.83;16.35;;;13.90;99.90;;;;;;6184872;23;20020;-89
2021/05/16 07:56:57;;;;;;;29.00;16.17;;;13.90;99.90;;;;;;6185659;23;20103;-90
2021/05/16 07:59:24;;;;;;;28.15;15.52;;;14.00;99.90;;;;;;6185798;23;20481;-90
2021/05/16 08:01:50;;;;;;;22.98;13.45;;;14.20;99.90;;;;;;6184866;23;20368;-90
2021/05/16 08:04:16;;;;;;;23.30;10.27;;;14.40;99.90;;;;;;6211299;23;20524;-90
2021/05/16 08:06:45;;;;;;;18.25;9.20;;;14.60;99.90;;;;;;6209537;23;20016;-91
2021/05/16 08:09:11;;;;;;;20.63;9.20;;;14.70;99.90;;;;;;6185608;23;20410;-90
2021/05/16 08:11:37;;;;;;;12.43;8.10;;;14.90;99.90;;;;;;6159931;23;20095;-91
2021/05/16 08:14:03;;;;;;;11.88;7.15;;;15.10;99.90;;;;;;6210186;23;20013;-89
2021/05/16 08:16:31;;;;;;;14.07;7.90;;;15.20;99.90;;;;;;6210300;23;20019;-89
2021/05/16 08:19:00;;;;;;;19.05;8.13;;;15.20;99.90;;;;;;6210691;23;20024;-89
2021/05/16 08:21:26;;;;;;;17.13;8.85;;;15.30;99.90;;;;;;6161855;23;20043;-90
2021/05/16 08:23:52;;;;;;;13.93;7.95;;;15.40;99.90;;;;;;6209890;23;20270;-90
2021/05/16 08:26:18;;;;;;;12.20;7.72;;;15.40;99.90;;;;;;6185459;23;20439;-88
2021/05/16 08:28:44;;;;;;;12.38;8.15;;;15.50;99.90;;;;;;6160022;23;20102;-89
2021/05/16 08:31:09;;;;;;;14.55;8.23;;;15.60;99.90;;;;;;6161485;23;20430;-89
2021/05/16 08:33:35;;;;;;;14.30;8.20;;;15.70;99.90;;;;;;6185272;23;20012;-88
2021/05/16 08:36:01;;;;;;;15.82;7.85;;;15.90;99.90;;;;;;6186833;23;20080;-90
2021/05/16 08:38:27;;;;;;;13.07;6.80;;;15.90;99.90;;;;;;6210843;23;20021;-89
2021/05/16 08:40:53;;;;;;;8.15;5.65;;;16.00;99.90;;;;;;6136091;23;20481;-89
2021/05/16 08:43:20;;;;;;;12.57;6.90;;;16.00;99.90;;;;;;6185301;23;20017;-89
2021/05/16 08:45:46;;;;;;;13.45;6.40;;;16.20;99.90;;;;;;6185522;23;20012;-91
2021/05/16 08:48:12;;;;;;;13.05;6.28;;;16.00;99.90;;;;;;6185550;23;20099;-90
2021/05/16 08:50:38;;;;;;;17.73;7.40;;;16.10;99.90;;;;;;6160353;23;20032;-91
2021/05/16 08:53:03;;;;;;;14.63;6.15;;;16.10;99.90;;;;;;6210872;23;20119;-90
2021/05/16 08:55:29;;;;;;;14.30;6.57;;;15.90;99.90;;;;;;6161133;23;20009;-89
2021/05/16 08:57:58;;;;;;;15.32;7.20;;;16.00;99.90;;;;;;6160182;23;20032;-92
2021/05/16 09:00:28;;;;;;;26.33;9.35;;;15.80;99.90;;;;;;6210500;23;20024;-91
2021/05/16 09:03:13;;;;;;;8.07;4.55;;;15.70;99.90;;;;;;6209084;23;20518;-91
2021/05/16 09:05:47;;;;;;;11.98;2.97;;;14.80;99.90;;;;;;6184897;23;20043;-87
2021/05/16 09:08:22;;;;;;;14.77;2.00;;;13.70;99.90;;;;;;6209832;23;20343;-88
2021/05/16 09:10:50;;;;;;;3.58;1.38;;;13.00;99.90;;;;;;6209232;23;20017;-90
2021/05/16 09:13:17;;;;;;;2.72;1.10;;;12.50;99.90;;;;;;6209744;23;20028;-88
2021/05/16 09:16:00;;;;;;;5.68;1.45;;;12.00;99.90;;;;;;6208556;23;20027;-87
2021/05/16 09:18:47;;;;;;;7.85;3.13;;;11.70;99.90;;;;;;6221403;23;20017;-86
2021/05/16 09:21:33;;;;;;;8.15;2.90;;;11.50;99.90;;;;;;6209515;23;20048;-86
2021/05/16 09:24:01;;;;;;;7.97;3.67;;;11.40;99.90;;;;;;6210766;23;20017;-86
2021/05/16 09:26:28;;;;;;;6.53;3.08;;;11.50;99.90;;;;;;6210769;23;20087;-87
2021/05/16 09:28:54;;;;;;;5.35;2.67;;;11.40;99.90;;;;;;6208566;23;20028;-87
2021/05/16 09:31:38;;;;;;;6.38;3.40;;;11.50;99.90;;;;;;6185049;23;20306;-87
2021/05/16 09:34:05;;;;;;;7.03;2.80;;;11.60;99.90;;;;;;6220864;23;20016;-86
2021/05/16 09:36:36;;;;;;;7.68;2.85;;;11.70;99.90;;;;;;6209758;23;20031;-87
2021/05/16 09:39:31;;;;;;;;;;;11.70;99.90;;;;;;6210101;23;20013;-87
2021/05/16 09:42:23;;;;;;;4.20;2.42;;;11.70;99.90;;;;;;6189989;23;19938;-86
2021/05/16 09:44:50;;;;;;;5.40;2.70;;;11.70;99.90;;;;;;6177853;23;20031;-86
2021/05/16 09:47:27;;;;;;;9.43;2.58;;;11.70;99.90;;;;;;6211175;23;20017;-87
2021/05/16 09:49:53;;;;;;;9.93;2.72;;;11.70;99.90;;;;;;6183503;23;20025;-87
2021/05/16 09:52:29;;;;;;;6.35;2.70;;;11.70;99.90;;;;;;6211381;23;20021;-87
2021/05/16 09:55:08;;;;;;;4.85;2.88;;;11.70;99.90;;;;;;6220227;23;20482;-85
2021/05/16 09:57:46;;;;;;;8.53;3.63;;;11.70;99.90;;;;;;5114325;27;20443;-86
2021/05/16 10:00:16;;;;;;;5.43;3.45;;;11.70;99.90;;;;;;5071339;28;20832;-87
2021/05/16 10:02:43;;;;;;;14.15;4.60;;;11.80;99.90;;;;;;5094941;28;20523;-86
2021/05/16 10:05:11;;;;;;;11.02;4.70;;;11.80;99.90;;;;;;5102530;28;20077;-87
2021/05/16 10:07:38;;;;;;;9.65;4.75;;;11.80;99.90;;;;;;5076463;28;20036;-89
2021/05/16 10:10:11;;;;;;;12.43;4.75;;;11.80;99.90;;;;;;5087803;28;20043;-87
2021/05/16 10:12:38;;;;;;;13.05;4.95;;;11.80;99.90;;;;;;5091920;28;20084;-89
2021/05/16 10:15:08;;;;;;;16.73;5.60;;;11.80;99.90;;;;;;5072986;28;20043;-86
2021/05/16 10:17:37;;;;;;;13.43;5.03;;;11.80;99.90;;;;;;5123397;28;20035;-86
2021/05/16 10:20:14;;;;;;;5.65;3.53;;;11.90;99.90;;;;;;5126374;28;20387;-87
2021/05/16 10:22:41;;;;;;;6.70;2.40;;;11.80;99.90;;;;;;5108012;28;20126;-88
2021/05/16 10:25:08;;;;;;;5.40;2.28;;;11.80;99.90;;;;;;5091583;28;20399;-87
2021/05/16 10:27:45;;;;;;;8.52;2.55;;;11.80;99.90;;;;;;5126551;28;20043;-86
2021/05/16 10:30:15;;;;;;;3.83;2.33;;;11.60;99.90;;;;;;5085778;28;20116;-87
2021/05/16 10:32:50;;;;;;;3.53;1.85;;;11.60;99.90;;;;;;5091479;28;20410;-87
2021/05/16 10:35:17;;;;;;;3.60;2.08;;;11.70;99.90;;;;;;5126686;27;20044;-87
2021/05/16 10:37:54;;;;;;;7.55;2.20;;;11.70;99.90;;;;;;5107601;28;20356;-88
2021/05/16 10:40:20;;;;;;;6.05;2.25;;;11.80;99.90;;;;;;5113991;28;20032;-86
2021/05/16 10:42:46;;;;;;;6.97;2.42;;;12.00;99.90;;;;;;5105370;28;20125;-88
2021/05/16 10:45:14;;;;;;;4.03;2.17;;;12.20;99.90;;;;;;5085772;28;20039;-87
2021/05/16 10:50:32;;;;;;;3.50;2.67;;;12.70;99.90;;;;;;5105661;28;20070;-88
2021/05/16 10:52:59;;;;;;;2.42;1.85;;;13.00;99.90;;;;;;5049351;28;20456;-87
2021/05/16 10:55:30;;;;;;;5.28;2.33;;;13.20;99.90;;;;;;5107633;28;20036;-86
2021/05/16 10:57:56;;;;;;;3.38;2.13;;;13.50;99.90;;;;;;5086893;28;20071;-87
2021/05/16 11:00:27;;;;;;;4.25;2.40;;;13.60;99.90;;;;;;5086384;28;20059;-87
2021/05/16 11:03:00;;;;;;;2.80;2.42;;;13.80;99.90;;;;;;5111327;27;20093;-87
2021/05/16 11:08:08;;;;;;;5.68;2.88;;;13.90;99.90;;;;;;5096626;28;20089;-86
2021/05/16 11:10:35;;;;;;;5.88;2.90;;;14.00;99.90;;;;;;5073334;28;20093;-87
2021/05/16 11:13:17;;;;;;;10.80;2.95;;;14.00;99.90;;;;;;5073018;28;20048;-90
2021/05/16 11:15:52;;;;;;;9.38;3.33;;;14.10;99.90;;;;;;5076859;28;20039;-91
2021/05/16 11:18:19;;;;;;;3.20;2.80;;;14.30;99.90;;;;;;5078257;28;20154;-85
2021/05/16 11:21:03;;;;;;;5.25;3.20;;;14.50;99.90;;;;;;5091026;28;20127;-89
2021/05/16 11:23:36;;;;;;;4.38;2.65;;;14.80;99.90;;;;;;5071697;28;20035;-88
2021/05/16 11:26:08;;;;;;;3.28;2.83;;;15.00;99.90;;;;;;5073219;28;20035;-86
2021/05/16 11:28:52;;;;;;;3.30;2.65;;;15.20;99.90;;;;;;5079354;28;20059;-88
2021/05/16 11:31:21;;;;;;;7.45;2.80;;;15.30;99.90;;;;;;5072999;28;20044;-87
2021/05/16 11:33:48;;;;;;;4.90;2.50;;;15.20;99.90;;;;;;5070129;28;20052;-89
2021/05/16 11:36:20;;;;;;;5.53;2.90;;;15.20;99.90;;;;;;5070040;28;20043;-88
2021/05/16 11:38:48;;;;;;;4.25;2.28;;;15.30;99.90;;;;;;5069489;28;20044;-91
2021/05/16 11:41:33;;;;;;;6.28;2.50;;;15.30;99.90;;;;;;5054275;28;20056;-90
2021/05/16 11:44:01;;;;;;;3.53;1.98;;;15.40;99.90;;;;;;5069605;28;20436;-88
2021/05/16 11:46:39;;;;;;;2.72;1.75;;;15.60;99.90;;;;;;5096180;28;20039;-88
2021/05/16 11:49:05;;;;;;;2.80;1.85;;;15.70;99.90;;;;;;5087719;28;20032;-88
2021/05/16 11:51:32;;;;;;;1.60;1.30;;;15.60;99.90;;;;;;5070849;28;20219;-87
2021/05/16 11:54:10;;;;;;;1.90;1.02;;;15.40;99.90;;;;;;5066489;28;20063;-88
2021/05/16 11:56:46;;;;;;;2.30;0.90;;;15.20;99.90;;;;;;5094352;28;20088;-87
2021/05/16 11:59:13;;;;;;;2.45;0.70;;;14.80;99.90;;;;;;5088004;28;20065;-88
2021/05/16 12:01:41;;;;;;;0.85;0.50;;;14.60;99.90;;;;;;5070981;28;20044;-88
2021/05/16 12:04:12;;;;;;;1.60;0.65;;;14.50;99.90;;;;;;5069388;28;20115;-87
2021/05/16 12:06:54;;;;;;;5.25;0.80;;;14.30;99.90;;;;;;5093155;28;20051;-87
2021/05/16 12:09:21;;;;;;;2.75;0.80;;;14.30;99.90;;;;;;5073834;28;20039;-88
2021/05/16 12:11:54;;;;;;;3.00;1.52;;;14.20;99.90;;;;;;5091391;28;20063;-89
2021/05/16 12:14:27;;;;;;;2.70;1.70;;;14.00;99.90;;;;;;5091418;28;20050;-89
2021/05/16 12:16:54;;;;;;;2.42;1.65;;;13.90;99.90;;;;;;5063638;28;20048;-90
2021/05/16 12:19:24;;;;;;;2.00;1.50;;;13.80;99.90;;;;;;5053873;28;20052;-90
2021/05/16 12:22:01;;;;;;;3.78;1.20;;;13.60;99.90;;;;;;5081901;28;20039;-88
2021/05/16 12:24:36;;;;;;;4.15;0.80;;;13.50;99.90;;;;;;5087760;28;20043;-88
2021/05/16 12:27:05;;;;;;;3.38;1.00;;;13.30;99.90;;;;;;5110088;28;20491;-90
2021/05/16 12:29:31;;;;;;;1.52;0.90;;;12.90;99.90;;;;;;5071189;28;20059;-88
2021/05/16 12:31:57;;;;;;;4.97;0.98;;;12.50;99.90;;;;;;5070045;28;20076;-88
2021/05/16 12:34:28;;;;;;;4.63;0.73;;;11.70;99.90;;;;;;5090562;28;20052;-89
2021/05/16 12:36:58;;;;;;;6.70;0.82;;;10.80;99.90;;;;;;5088448;28;20043;-89
2021/05/16 12:39:33;;;;;;;2.28;0.55;;;10.30;99.90;;;;;;5108124;28;20141;-89
2021/05/16 12:41:59;;;;;;;1.40;0.63;;;10.10;99.90;;;;;;5088578;28;20078;-87
2021/05/16 12:44:25;;;;;;;2.00;0.77;;;10.00;99.90;;;;;;5107675;28;20031;-88
2021/05/16 12:46:53;;;;;;;3.88;1.10;;;10.00;99.90;;;;;;5071369;28;20047;-89
2021/05/16 12:49:21;;;;;;;2.83;1.02;;;10.20;99.90;;;;;;5088938;28;20043;-88